Terminal Aerodrome Forecast
Issued by NWS Amarillo, TX

Home | Current Version | Previous Version | Text Only | Print | Product List | Glossary On
Versions: 1 2 3 4 5 6 7 8 9 10 11 12 13 14 15 16 17 18 19
000
FTUS44 KAMA 012300
TAFAMA
TAF
KAMA 012320Z 0200/0224 16015KT P6SM BKN250
      TEMPO 0203/0207 VRB25G35KT P6SM TSRA BKN040CB
     FM021400 19015G23KT P6SM SCT250=

USA.gov is the U.S. government's official web portal to all federal, state and local government web resources and services.